Terminal Aerodrome Forecast
Issued by NWS Charleston, WV

Current Version | Previous Version | Text Only | Print | Product List | Glossary Off
Versions: 1 2 3 4 5 6 7 8 9 10 11 12 13 14 15 16 17 18 19 20 21 22

000
FTUS41 KRLX 250527
TAFEKN
TAF
KEKN 250527Z 2506/2606 00000KT 6SM -RA BKN050
     FM250700 00000KT 5SM BR OVC025
     FM250900 00000KT 2SM BR OVC015
     FM251500 30004KT P6SM -SHRA OVC015
     FM251900 31006KT 5SM SHRA OVC010
     FM252100 31007KT 3SM SHRA OVC008
     FM260100 31007KT P6SM BKN008=

USA.gov is the U.S. government's official web portal to all federal, state and local government web resources and services.